Time;durP1;ratioP1;P1;durP2;ratioP2;P2;SDS_P1;SDS_P2;PMS_P1;PMS_P2;Temp;Humidity;BMP_temperature;BMP_pressure;BME280_temperature;BME280_humidity;BME280_pressure;Samples;Min_cycle;Max_cycle;Signal;HPM_P1;HPM_P2
2021/05/28 00:00:41;;;;;;;100.60;35.35;;;;;;;16.40;84.26;99581.03;5031643;28;20359;-69
2021/05/28 00:03:06;;;;;;;156.00;35.67;;;;;;;16.31;84.75;99577.50;5032100;28;20041;-70
2021/05/28 00:05:33;;;;;;;170.88;37.88;;;;;;;16.28;85.09;99577.81;5035395;28;20041;-69
2021/05/28 00:07:58;;;;;;;266.40;41.50;;;;;;;16.28;85.13;99588.50;5033868;28;20046;-69
2021/05/28 00:10:24;;;;;;;88.80;35.35;;;;;;;16.37;85.20;99589.38;5035229;28;20035;-73
2021/05/28 00:12:50;;;;;;;98.57;34.00;;;;;;;16.40;85.06;99581.03;5035227;28;20038;-71
2021/05/28 00:15:16;;;;;;;165.95;36.80;;;;;;;16.34;85.14;99571.84;5035405;28;20033;-69
2021/05/28 00:17:43;;;;;;;157.33;37.10;;;;;;;16.30;84.97;99568.66;5035325;28;20044;-72
2021/05/28 00:20:11;;;;;;;178.82;34.50;;;;;;;16.28;84.92;99567.16;5035294;28;20264;-71
2021/05/28 00:22:37;;;;;;;;;;;;;;;16.23;84.89;99559.63;5035610;28;20045;-71
2021/05/28 00:25:03;;;;;;;103.93;30.88;;;;;;;16.20;84.92;99559.94;5017541;28;19923;-71
2021/05/28 00:27:30;;;;;;;147.13;34.55;;;;;;;16.18;84.92;99561.91;5001064;28;20046;-70
2021/05/28 00:30:06;;;;;;;83.40;30.55;;;;;;;16.15;84.96;99559.59;4994749;28;20034;-72
2021/05/28 00:32:32;;;;;;;139.32;33.00;;;;;;;16.16;84.88;99554.09;4994636;28;20035;-68
2021/05/28 00:34:58;;;;;;;97.63;29.63;;;;;;;16.15;84.83;99556.91;4995592;28;20372;-69
2021/05/28 00:37:24;;;;;;;82.95;30.17;;;;;;;16.11;84.75;99551.06;4995465;28;20516;-71
2021/05/28 00:39:50;;;;;;;136.00;30.73;;;;;;;16.10;84.71;99554.72;4994369;28;20065;-69
2021/05/28 00:42:17;;;;;;;124.77;29.57;;;;;;;16.06;84.58;99557.84;4995024;28;20034;-70
2021/05/28 00:44:43;;;;;;;99.25;29.65;;;;;;;16.01;84.70;99559.16;4995518;28;20435;-72
2021/05/28 00:47:09;;;;;;;186.10;30.48;;;;;;;15.89;84.62;99568.41;4995137;28;20045;-75
2021/05/28 00:49:35;;;;;;;154.02;29.10;;;;;;;15.78;84.76;99568.63;4994212;28;20034;-71
2021/05/28 00:52:01;;;;;;;201.82;32.13;;;;;;;15.69;84.93;99563.22;4995379;28;20062;-71
2021/05/28 00:54:27;;;;;;;229.15;31.58;;;;;;;15.68;84.59;99560.72;4995003;28;20088;-68
2021/05/28 00:56:54;;;;;;;112.60;27.33;;;;;;;15.61;84.76;99559.66;4995442;28;20546;-69
2021/05/28 00:59:20;;;;;;;175.05;28.23;;;;;;;15.55;84.59;99561.09;4994778;28;20039;-73
2021/05/28 01:01:47;;;;;;;164.95;26.17;;;;;;;15.48;84.81;99568.03;4977721;28;20040;-72
2021/05/28 01:04:13;;;;;;;148.00;29.05;;;;;;;15.48;85.06;99566.19;4993593;28;20034;-70
2021/05/28 01:06:39;;;;;;;171.30;29.35;;;;;;;15.45;84.93;99568.34;4995003;28;20076;-69
2021/05/28 01:09:06;;;;;;;196.90;29.15;;;;;;;15.36;85.05;99560.28;4994429;28;20102;-71
2021/05/28 01:11:32;;;;;;;183.57;28.52;;;;;;;15.34;85.21;99558.75;4994620;28;20034;-69
2021/05/28 01:13:59;;;;;;;217.73;28.50;;;;;;;15.35;85.08;99561.25;4994850;28;20428;-69
2021/05/28 01:16:25;;;;;;;175.18;28.52;;;;;;;15.26;85.19;99559.50;4994418;28;20107;-71
2021/05/28 01:18:51;;;;;;;114.22;27.15;;;;;;;15.27;85.22;99563.84;4995103;28;20084;-71
2021/05/28 01:21:17;;;;;;;156.95;27.50;;;;;;;15.26;85.02;99562.16;4993311;28;20042;-70
2021/05/28 01:23:43;;;;;;;134.63;26.77;;;;;;;15.23;85.44;99549.16;5008010;28;20075;-71
2021/05/28 01:26:09;;;;;;;106.75;27.30;;;;;;;15.27;85.28;99545.19;5033684;28;20494;-70
2021/05/28 01:28:35;;;;;;;151.60;27.65;;;;;;;15.22;85.24;99546.66;5034060;28;20076;-71
2021/05/28 01:31:00;;;;;;;151.05;30.42;;;;;;;15.22;85.21;99550.13;5033820;28;20447;-72
2021/05/28 01:33:27;;;;;;;132.07;28.08;;;;;;;15.22;85.41;99552.81;5033674;28;20557;-70
2021/05/28 01:35:55;;;;;;;93.43;24.30;;;;;;;15.31;85.57;99548.38;5032791;28;20045;-71
2021/05/28 01:38:21;;;;;;;102.90;25.73;;;;;;;15.37;85.27;99537.94;5032069;28;20180;-70
2021/05/28 01:40:47;;;;;;;105.95;26.92;;;;;;;15.32;85.07;99550.88;5033915;28;20086;-69
2021/05/28 01:43:12;;;;;;;107.13;27.80;;;;;;;15.31;85.02;99559.88;5033638;28;20116;-69
2021/05/28 01:45:39;;;;;;;205.65;29.20;;;;;;;15.39;84.78;99566.28;5033719;28;20478;-69
2021/05/28 01:48:05;;;;;;;107.28;27.55;;;;;;;15.39;84.77;99558.28;5033258;28;20029;-70
2021/05/28 01:50:42;;;;;;;97.28;26.58;;;;;;;15.45;84.67;99565.66;5033496;28;20035;-71
2021/05/28 01:53:17;;;;;;;90.63;26.10;;;;;;;15.53;84.78;99563.09;5033465;28;20115;-69
2021/05/28 01:55:44;;;;;;;84.95;24.27;;;;;;;15.63;84.41;99547.00;5032161;28;20041;-71
2021/05/28 01:58:15;;;;;;;104.95;26.00;;;;;;;15.65;84.03;99550.34;5033257;28;20047;-69
2021/05/28 02:00:41;;;;;;;214.35;30.83;;;;;;;15.67;83.77;99554.53;5026778;28;20096;-71
2021/05/28 02:03:07;;;;;;;98.70;25.48;;;;;;;15.73;83.72;99555.75;5011182;28;20046;-70
2021/05/28 02:05:34;;;;;;;80.60;24.92;;;;;;;15.62;83.69;99556.81;5011955;28;20063;-70
2021/05/28 02:08:01;;;;;;;153.25;31.30;;;;;;;15.64;83.58;99557.50;5011619;28;20034;-70
2021/05/28 02:10:28;;;;;;;118.88;27.23;;;;;;;15.61;83.85;99552.47;5013164;28;20125;-70
2021/05/28 02:12:55;;;;;;;93.03;27.73;;;;;;;15.68;83.68;99555.38;5013070;28;20073;-70
2021/05/28 02:15:22;;;;;;;132.68;27.55;;;;;;;15.71;83.31;99544.38;5011979;28;20037;-72
2021/05/28 02:17:50;;;;;;;160.70;29.65;;;;;;;15.73;83.50;99554.91;5013199;28;20088;-69
2021/05/28 02:20:16;;;;;;;;;;;;;;;15.73;83.57;99560.25;5013571;28;20041;-70
2021/05/28 02:22:41;;;;;;;88.47;27.42;;;;;;;15.77;83.44;99548.28;5013173;28;19909;-71
2021/05/28 02:25:08;;;;;;;72.57;26.45;;;;;;;15.75;83.54;99556.44;5031272;28;20045;-72
2021/05/28 02:27:34;;;;;;;58.13;26.85;;;;;;;15.77;83.78;99556.28;5031449;28;20076;-68
2021/05/28 02:30:00;;;;;;;62.08;25.90;;;;;;;15.84;83.27;99544.84;5032444;28;20467;-71
2021/05/28 02:32:26;;;;;;;49.40;25.98;;;;;;;15.86;82.80;99536.69;5032768;28;20037;-71
2021/05/28 02:34:53;;;;;;;55.50;27.17;;;;;;;15.81;82.71;99533.63;5032699;28;20592;-69
2021/05/28 02:37:18;;;;;;;48.95;26.73;;;;;;;15.93;82.57;99531.59;5032363;28;20471;-70
2021/05/28 02:39:44;;;;;;;44.60;25.25;;;;;;;15.95;82.40;99535.78;5032575;28;20041;-69
2021/05/28 02:42:11;;;;;;;49.70;25.67;;;;;;;16.03;81.99;99534.16;5006612;28;20102;-69
2021/05/28 02:44:38;;;;;;;44.25;25.65;;;;;;;16.11;81.46;99528.84;4993181;28;20034;-72
2021/05/28 02:47:04;;;;;;;44.85;25.08;;;;;;;16.07;81.70;99532.84;5012194;28;20048;-70
2021/05/28 02:49:30;;;;;;;41.05;24.77;;;;;;;16.12;81.53;99536.69;5012261;28;20038;-70
2021/05/28 02:51:56;;;;;;;43.47;25.27;;;;;;;16.23;81.16;99540.94;4993993;28;20045;-69
2021/05/28 02:54:24;;;;;;;46.80;26.15;;;;;;;16.36;80.69;99539.66;4995923;28;20034;-70
2021/05/28 02:56:50;;;;;;;44.45;25.52;;;;;;;16.40;80.27;99535.66;4993022;28;20034;-70
2021/05/28 02:59:16;;;;;;;44.25;25.65;;;;;;;16.45;80.25;99534.22;4992951;28;20198;-70
2021/05/28 03:01:42;;;;;;;54.33;27.02;;;;;;;16.41;80.13;99535.53;4992717;28;20037;-69
2021/05/28 03:04:08;;;;;;;47.33;26.60;;;;;;;16.42;80.36;99531.84;4992771;28;20035;-70
2021/05/28 03:06:34;;;;;;;49.67;27.30;;;;;;;16.53;80.33;99533.41;4992758;28;20574;-71
2021/05/28 03:09:00;;;;;;;47.42;26.15;;;;;;;16.54;80.02;99534.25;4992814;28;20586;-78
2021/05/28 03:11:26;;;;;;;44.90;26.05;;;;;;;16.53;80.22;99533.41;4992724;28;20102;-75
2021/05/28 03:13:52;;;;;;;46.60;25.98;;;;;;;16.52;80.13;99529.06;4992898;28;20065;-73
2021/05/28 03:16:18;;;;;;;45.78;26.17;;;;;;;16.43;80.07;99528.19;4992438;28;20068;-69
2021/05/28 03:23:45;;;;;;;43.05;27.23;;;;;;;16.46;80.22;99533.22;5006698;28;20029;-70
2021/05/28 03:26:11;;;;;;;44.88;27.10;;;;;;;16.49;80.19;99537.41;5032123;28;20080;-72
2021/05/28 03:28:36;;;;;;;41.80;25.98;;;;;;;16.43;80.37;99536.19;5030518;28;20449;-71
2021/05/28 03:31:02;;;;;;;46.70;27.08;;;;;;;16.50;80.36;99533.75;5031673;28;20046;-69
2021/05/28 03:33:28;;;;;;;42.13;26.98;;;;;;;16.51;80.30;99535.41;5031501;28;20168;-70
2021/05/28 03:35:54;;;;;;;47.42;28.33;;;;;;;16.45;80.42;99541.41;5020699;28;20135;-69
2021/05/28 03:38:20;;;;;;;47.72;27.00;;;;;;;16.43;80.66;99538.03;4994632;28;20124;-70
2021/05/28 03:40:45;;;;;;;44.65;28.02;;;;;;;16.48;80.50;99541.06;5011801;28;20037;-70
2021/05/28 03:43:11;;;;;;;52.25;33.72;;;;;;;16.48;80.41;99541.06;5010682;28;20030;-76
2021/05/28 03:45:37;;;;;;;48.67;30.38;;;;;;;16.37;80.59;99544.00;4995418;28;20034;-72
2021/05/28 03:48:04;;;;;;;50.78;30.08;;;;;;;16.25;81.18;99552.28;5007610;28;20454;-69
2021/05/28 03:50:30;;;;;;;52.55;30.83;;;;;;;16.26;81.43;99553.97;5012039;28;20033;-70
2021/05/28 03:52:56;;;;;;;46.50;28.70;;;;;;;16.28;81.39;99549.28;5011415;28;20609;-71
2021/05/28 03:55:22;;;;;;;43.35;28.75;;;;;;;16.37;81.26;99552.03;5011868;28;20136;-71
2021/05/28 03:57:47;;;;;;;47.63;29.88;;;;;;;16.44;80.92;99553.06;5008366;28;20423;-71
2021/05/28 04:00:14;;;;;;;47.22;29.20;;;;;;;16.43;81.22;99548.72;5003416;28;20169;-69
2021/05/28 04:02:41;;;;;;;49.83;29.13;;;;;;;16.34;81.21;99550.50;4994745;28;20045;-72
2021/05/28 04:05:09;;;;;;;50.30;30.30;;;;;;;16.36;81.46;99563.69;4991909;28;20383;-71
2021/05/28 04:07:35;;;;;;;51.45;30.83;;;;;;;16.33;81.64;99563.00;4999250;28;20069;-71
2021/05/28 04:10:00;;;;;;;50.00;30.63;;;;;;;16.45;81.58;99563.56;5003559;28;20070;-69
2021/05/28 04:12:27;;;;;;;51.13;30.65;;;;;;;16.30;81.36;99563.31;4991991;28;20108;-70
2021/05/28 04:14:52;;;;;;;55.25;30.63;;;;;;;16.22;81.81;99571.28;4992197;28;20435;-74
2021/05/28 04:17:18;;;;;;;52.25;30.05;;;;;;;16.17;81.88;99569.09;4992007;28;20038;-70
2021/05/28 04:19:44;;;;;;;46.63;30.10;;;;;;;16.24;81.98;99571.13;4999874;28;20541;-71
2021/05/28 04:22:10;;;;;;;134.48;68.60;;;;;;;16.31;82.00;99567.69;4991647;28;20042;-72
2021/05/28 04:24:36;;;;;;;48.83;29.38;;;;;;;16.32;81.65;99572.03;5012419;28;20045;-72
2021/05/28 04:27:02;;;;;;;43.72;27.65;;;;;;;16.29;81.63;99577.66;4998008;28;20054;-70
2021/05/28 04:29:28;;;;;;;45.40;28.58;;;;;;;16.17;81.73;99578.91;4991520;28;20034;-72
2021/05/28 04:31:55;;;;;;;51.63;29.42;;;;;;;16.16;82.07;99586.09;4991334;28;20423;-72
2021/05/28 04:34:20;;;;;;;51.05;31.65;;;;;;;16.20;82.02;99575.09;4991248;28;20041;-72
2021/05/28 04:36:46;;;;;;;48.35;30.27;;;;;;;16.25;81.92;99578.13;4991622;28;20042;-70
2021/05/28 04:39:12;;;;;;;48.90;28.88;;;;;;;16.24;81.85;99569.28;4991257;28;20423;-70
2021/05/28 04:41:38;;;;;;;49.05;28.48;;;;;;;16.39;81.83;99568.72;4991008;28;20050;-71
2021/05/28 04:44:04;;;;;;;45.80;28.77;;;;;;;16.48;81.53;99568.56;4991993;28;20482;-72
2021/05/28 04:46:30;;;;;;;46.03;27.33;;;;;;;16.53;81.76;99562.78;4991780;28;20546;-71
2021/05/28 04:48:56;;;;;;;46.85;28.35;;;;;;;16.55;81.73;99560.78;4991804;28;20121;-71
2021/05/28 04:51:21;;;;;;;42.78;26.85;;;;;;;16.60;81.21;99555.78;4993979;28;20447;-72
2021/05/28 04:53:47;;;;;;;44.10;25.90;;;;;;;16.54;81.49;99560.94;4995514;28;20069;-70
2021/05/28 04:56:13;;;;;;;37.42;26.60;;;;;;;16.48;81.11;99557.91;4994110;28;20104;-71
2021/05/28 04:58:39;;;;;;;49.10;28.42;;;;;;;16.49;81.17;99558.75;4995209;28;20034;-73
2021/05/28 05:01:05;;;;;;;48.53;28.67;;;;;;;16.59;81.24;99553.28;4995493;28;20049;-73
2021/05/28 05:03:31;;;;;;;47.50;30.15;;;;;;;16.70;80.82;99554.81;4993419;28;20118;-73
2021/05/28 05:05:57;;;;;;;44.47;27.40;;;;;;;16.68;80.85;99546.16;4994925;28;20038;-71
2021/05/28 05:08:23;;;;;;;42.28;27.33;;;;;;;16.76;80.25;99548.84;4994775;28;20038;-74
2021/05/28 05:10:49;;;;;;;43.75;27.10;;;;;;;16.78;80.53;99560.19;4994828;28;20092;-76
2021/05/28 05:13:15;;;;;;;39.83;26.13;;;;;;;16.91;80.29;99555.28;4993943;28;20526;-71
2021/05/28 05:15:41;;;;;;;46.22;28.33;;;;;;;16.98;79.88;99558.13;4994937;28;20039;-72
2021/05/28 05:18:07;;;;;;;42.72;27.77;;;;;;;17.05;79.83;99555.66;4994835;28;20061;-73
2021/05/28 05:20:37;;;;;;;42.08;26.95;;;;;;;17.14;79.20;99560.00;4994731;28;20121;-71
2021/05/28 05:23:04;;;;;;;44.33;26.67;;;;;;;17.07;79.17;99567.84;4997519;28;20034;-76
2021/05/28 05:25:30;;;;;;;45.53;28.83;;;;;;;17.09;79.26;99559.66;5033684;28;20033;-73
2021/05/28 05:27:56;;;;;;;45.70;27.83;;;;;;;17.07;79.04;99562.50;5033967;28;20058;-70
2021/05/28 05:30:22;;;;;;;45.30;30.25;;;;;;;16.98;79.09;99553.63;5033519;28;20466;-74
2021/05/28 05:32:48;;;;;;;45.38;29.75;;;;;;;17.01;79.30;99547.13;5032651;28;20046;-70
2021/05/28 05:35:14;;;;;;;44.90;29.65;;;;;;;17.13;78.90;99534.28;5033811;28;20033;-73
2021/05/28 05:37:40;;;;;;;41.00;28.30;;;;;;;17.28;78.10;99527.28;5033937;28;20037;-71
2021/05/28 05:40:07;;;;;;;44.13;28.55;;;;;;;17.46;77.93;99528.97;5033439;28;20095;-71
2021/05/28 05:42:36;;;;;;;42.67;28.63;;;;;;;17.46;77.42;99528.97;5033159;28;20037;-75
2021/05/28 05:45:03;;;;;;;41.15;27.70;;;;;;;17.48;77.56;99532.28;5033389;28;20042;-70
2021/05/28 05:47:29;;;;;;;40.10;27.75;;;;;;;17.51;77.48;99537.31;5033131;28;20033;-72
2021/05/28 05:49:55;;;;;;;40.42;27.70;;;;;;;17.48;77.56;99540.31;5033351;28;20125;-74
2021/05/28 05:52:20;;;;;;;37.15;27.02;;;;;;;17.53;77.32;99543.31;5033113;28;20649;-75
2021/05/28 05:54:47;;;;;;;38.00;26.98;;;;;;;17.59;76.92;99537.31;5033199;28;20037;-72
2021/05/28 05:57:12;;;;;;;38.67;26.15;;;;;;;17.60;76.89;99532.81;5033087;28;20040;-71
2021/05/28 05:59:38;;;;;;;36.20;25.95;;;;;;;17.66;76.71;99528.63;5032644;28;20165;-73
2021/05/28 06:02:04;;;;;;;41.15;28.15;;;;;;;17.68;76.95;99530.13;5032756;28;20164;-71
2021/05/28 06:04:30;;;;;;;35.33;25.52;;;;;;;17.90;76.49;99527.78;5033199;28;20041;-74
2021/05/28 06:06:56;;;;;;;39.67;26.67;;;;;;;18.02;75.61;99528.28;5032890;28;20120;-75
2021/05/28 06:09:22;;;;;;;36.78;26.55;;;;;;;18.05;75.16;99525.25;5032673;28;20524;-71
2021/05/28 06:11:47;;;;;;;36.92;27.52;;;;;;;18.19;75.03;99519.19;5032395;28;20504;-72
2021/05/28 06:14:13;;;;;;;43.58;26.65;;;;;;;18.42;74.47;99521.16;5032905;28;20041;-72
2021/05/28 06:16:40;;;;;;;36.30;25.20;;;;;;;18.43;74.32;99518.28;5032395;28;20041;-71
2021/05/28 06:19:07;;;;;;;36.90;25.65;;;;;;;18.57;73.98;99522.06;5032468;28;20099;-73
2021/05/28 06:21:33;;;;;;;35.47;25.17;;;;;;;18.83;72.96;99512.06;5032386;28;20045;-79
2021/05/28 06:23:59;;;;;;;39.25;26.50;;;;;;;18.77;72.97;99521.66;5023902;28;20034;-72
2021/05/28 06:26:25;;;;;;;35.38;24.80;;;;;;;18.98;72.39;99517.53;5012703;28;20041;-72
2021/05/28 06:28:52;;;;;;;35.42;25.50;;;;;;;19.28;71.70;99513.16;5013064;28;20066;-73
2021/05/28 06:31:17;;;;;;;32.85;24.23;;;;;;;19.50;70.87;99507.94;5013075;28;20131;-74
2021/05/28 06:33:43;;;;;;;37.85;27.48;;;;;;;19.68;70.26;99513.00;5012868;28;20042;-73
2021/05/28 06:36:09;;;;;;;34.63;25.65;;;;;;;19.97;69.32;99506.03;5012863;28;20044;-74
2021/05/28 06:38:35;;;;;;;38.35;27.10;;;;;;;20.44;67.90;99510.19;5012663;28;20494;-72
2021/05/28 06:41:01;;;;;;;37.92;25.05;;;;;;;20.79;67.10;99510.44;5012822;28;20038;-74
2021/05/28 06:43:27;;;;;;;33.60;24.15;;;;;;;21.40;65.09;99514.59;5012781;28;20092;-73
2021/05/28 06:45:53;;;;;;;31.98;23.38;;;;;;;22.39;62.50;99503.94;5012821;28;20040;-72
2021/05/28 06:48:19;;;;;;;29.27;23.60;;;;;;;23.18;60.17;99509.81;5012855;28;20710;-73
2021/05/28 06:50:45;;;;;;;29.63;23.98;;;;;;;23.28;59.18;99504.88;5012600;28;20470;-72
2021/05/28 06:53:11;;;;;;;31.20;23.73;;;;;;;23.50;58.41;99504.66;5012591;28;20061;-75
2021/05/28 06:55:38;;;;;;;28.42;23.23;;;;;;;23.62;58.01;99497.59;5012676;28;20053;-74
2021/05/28 06:58:04;;;;;;;29.70;22.83;;;;;;;23.74;58.73;99504.03;5012676;28;20073;-72
2021/05/28 07:00:31;;;;;;;30.60;22.75;;;;;;;24.60;55.93;99505.91;5012652;28;20120;-75
2021/05/28 07:02:57;;;;;;;27.77;21.48;;;;;;;24.64;55.14;99510.69;5012585;28;20383;-74
2021/05/28 07:05:27;;;;;;;23.40;20.60;;;;;;;25.31;54.36;99510.34;5012533;28;20045;-72
2021/05/28 07:07:54;;;;;;;25.80;21.33;;;;;;;25.23;53.07;99497.06;5012334;28;20041;-75
2021/05/28 07:10:20;;;;;;;27.17;20.97;;;;;;;24.83;54.65;99505.44;5012546;28;20045;-73
2021/05/28 07:12:47;;;;;;;26.60;21.70;;;;;;;25.81;52.32;99503.31;5010638;28;20073;-73
2021/05/28 07:15:13;;;;;;;23.60;20.50;;;;;;;26.36;50.35;99504.44;5011131;28;20608;-73
2021/05/28 07:17:40;;;;;;;27.08;19.88;;;;;;;27.87;46.74;99503.50;5012150;28;20038;-71
2021/05/28 07:20:07;;;;;;;21.98;18.15;;;;;;;29.93;43.08;99494.91;5011474;28;20097;-73
2021/05/28 07:22:33;;;;;;;;;;;;;;;31.74;39.41;99490.31;5012464;28;20084;-72
2021/05/28 07:24:59;;;;;;;22.87;19.50;;;;;;;32.51;37.60;99494.53;5029756;28;20361;-75
2021/05/28 07:27:26;;;;;;;19.98;17.00;;;;;;;32.12;36.62;99492.97;5032095;28;20136;-76
2021/05/28 07:29:52;;;;;;;23.92;18.05;;;;;;;33.01;35.40;99489.47;5032217;28;20084;-74
2021/05/28 07:32:18;;;;;;;18.50;16.42;;;;;;;32.31;35.55;99487.88;5031945;28;20052;-75
2021/05/28 07:34:43;;;;;;;17.40;15.70;;;;;;;33.00;34.39;99488.66;5031520;28;20378;-79
2021/05/28 07:37:09;;;;;;;15.40;13.90;;;;;;;33.53;32.26;99490.34;5032116;28;20466;-75
2021/05/28 07:39:35;;;;;;;12.47;11.17;;;;;;;32.00;32.71;99493.22;5030462;28;20044;-75
2021/05/28 07:42:05;;;;;;;13.30;9.40;;;;;;;31.19;31.95;99488.75;5031521;28;20636;-72
2021/05/28 07:44:31;;;;;;;13.57;10.75;;;;;;;29.80;34.53;99496.88;5031658;28;20490;-74
2021/05/28 07:46:58;;;;;;;14.77;10.70;;;;;;;29.32;36.06;99498.28;5030530;28;20052;-75
2021/05/28 07:49:24;;;;;;;14.33;12.20;;;;;;;28.99;36.67;99487.06;5031692;28;20283;-73
2021/05/28 07:51:50;;;;;;;16.77;12.37;;;;;;;29.18;36.76;99489.56;5030266;28;20036;-74
2021/05/28 07:54:16;;;;;;;14.00;11.60;;;;;;;30.74;35.13;99494.28;5031745;28;20264;-72
2021/05/28 07:56:43;;;;;;;13.63;12.00;;;;;;;30.07;35.49;99490.75;5013341;28;20041;-73
2021/05/28 07:59:09;;;;;;;14.85;10.77;;;;;;;29.97;36.14;99485.13;5031708;28;20044;-74
2021/05/28 08:01:35;;;;;;;12.50;10.93;;;;;;;29.69;35.85;99497.78;5031167;28;20121;-78
2021/05/28 08:04:01;;;;;;;14.88;12.00;;;;;;;29.41;37.37;99495.97;5031520;28;20141;-73
2021/05/28 08:06:29;;;;;;;13.52;12.00;;;;;;;29.03;37.68;99496.41;5031106;28;20371;-72
2021/05/28 08:08:55;;;;;;;12.73;11.38;;;;;;;29.04;37.63;99481.72;5031726;28;20049;-76
2021/05/28 08:11:21;;;;;;;17.60;12.10;;;;;;;29.79;37.19;99478.03;5030311;28;20374;-74
2021/05/28 08:13:47;;;;;;;13.20;12.00;;;;;;;29.89;36.39;99482.81;5030248;28;20045;-72
2021/05/28 08:16:14;;;;;;;23.20;14.48;;;;;;;30.55;36.11;99473.88;5029899;28;20037;-73
2021/05/28 08:18:40;;;;;;;16.55;14.43;;;;;;;31.86;34.41;99464.66;5030191;28;20041;-75
2021/05/28 08:21:07;;;;;;;;;;;;;;;31.37;34.53;99460.22;5031583;28;20612;-74
2021/05/28 08:23:33;;;;;;;13.90;10.87;;;;;;;31.07;34.96;99464.34;5025510;28;19987;-73
2021/05/28 08:26:01;;;;;;;13.75;12.25;;;;;;;32.59;33.53;99461.97;5013386;28;20546;-77
2021/05/28 08:28:28;;;;;;;15.30;12.48;;;;;;;33.79;31.39;99455.47;4998143;28;20089;-73
2021/05/28 08:30:54;;;;;;;16.83;14.88;;;;;;;30.87;33.64;99459.47;4993515;28;20030;-72
2021/05/28 08:33:19;;;;;;;14.93;13.43;;;;;;;30.70;35.68;99460.41;4995757;28;20494;-74
2021/05/28 08:35:45;;;;;;;13.17;11.77;;;;;;;31.94;33.92;99458.72;4995222;28;20034;-77
2021/05/28 08:38:11;;;;;;;18.80;14.83;;;;;;;32.84;31.73;99454.13;4995393;28;20516;-74
2021/05/28 08:40:38;;;;;;;14.02;11.40;;;;;;;32.47;31.68;99452.38;4995306;28;20121;-73
2021/05/28 08:43:05;;;;;;;16.00;12.30;;;;;;;32.94;31.52;99451.41;4995543;28;20125;-73
2021/05/28 08:45:38;;;;;;;16.40;11.77;;;;;;;34.39;29.68;99445.69;4995560;28;20125;-75
2021/05/28 08:48:05;;;;;;;12.63;11.25;;;;;;;35.60;27.58;99444.28;4995567;28;20030;-74
2021/05/28 08:50:31;;;;;;;16.02;11.73;;;;;;;36.48;26.55;99445.19;4995107;28;20065;-76
2021/05/28 08:53:02;;;;;;;15.10;12.25;;;;;;;35.66;26.62;99449.72;4995158;28;20046;-72
2021/05/28 08:55:28;;;;;;;17.33;12.65;;;;;;;35.33;26.88;99450.28;4995379;28;20046;-77
2021/05/28 08:57:54;;;;;;;10.73;9.63;;;;;;;35.38;27.35;99443.91;4994258;28;20046;-74
2021/05/28 09:00:20;;;;;;;11.45;9.82;;;;;;;35.03;26.75;99449.44;4994597;28;20316;-75
2021/05/28 09:02:46;;;;;;;14.00;11.02;;;;;;;33.16;29.05;99453.88;4993820;28;20042;-74
2021/05/28 09:05:15;;;;;;;18.80;15.15;;;;;;;33.82;28.91;99434.91;4993583;28;20042;-75
2021/05/28 09:07:54;;;;;;;9.60;8.57;;;;;;;33.50;27.59;99455.25;4995137;28;20038;-74
2021/05/28 09:10:34;;;;;;;11.05;9.60;;;;;;;32.65;29.23;99443.66;4995620;28;20042;-74
2021/05/28 09:13:07;;;;;;;9.13;7.63;;;;;;;32.79;29.65;99443.13;4995272;28;20121;-73
2021/05/28 09:15:33;;;;;;;13.43;7.75;;;;;;;32.51;29.71;99440.63;4994752;28;20034;-78
2021/05/28 09:18:00;;;;;;;13.63;6.83;;;;;;;31.00;30.81;99439.91;4995101;28;20050;-77
2021/05/28 09:20:26;;;;;;;7.05;6.40;;;;;;;31.68;30.40;99433.94;4994502;28;20045;-72
2021/05/28 09:23:13;;;;;;;9.23;7.17;;;;;;;33.02;28.72;99430.84;4994790;28;20506;-76
2021/05/28 09:26:04;;;;;;;9.02;7.10;;;;;;;32.24;29.66;99435.34;4994316;28;20498;-76
2021/05/28 09:28:55;;;;;;;9.55;8.50;;;;;;;32.92;30.04;99428.09;4994803;28;20046;-75
2021/05/28 09:31:29;;;;;;;8.43;7.55;;;;;;;34.14;28.51;99430.94;4994537;28;20040;-76
2021/05/28 09:34:02;;;;;;;8.73;7.40;;;;;;;33.31;29.17;99436.63;4994871;28;20085;-74
2021/05/28 09:36:32;;;;;;;10.80;7.35;;;;;;;32.62;30.11;99427.75;4994093;28;20385;-74
2021/05/28 09:39:08;;;;;;;7.93;6.70;;;;;;;31.21;30.92;99426.47;4994561;28;20088;-75
2021/05/28 09:41:51;;;;;;;8.40;7.10;;;;;;;30.12;32.85;99433.53;4994659;28;20479;-72
2021/05/28 09:44:21;;;;;;;9.20;6.70;;;;;;;30.18;32.34;99427.06;4994484;28;20042;-75
2021/05/28 09:47:07;;;;;;;10.95;7.43;;;;;;;30.37;33.11;99424.00;4994038;28;20614;-77
2021/05/28 09:49:44;;;;;;;11.35;8.15;;;;;;;29.73;33.91;99430.78;4994218;28;20037;-74
2021/05/28 09:52:16;;;;;;;9.98;7.57;;;;;;;28.90;34.64;99436.81;4993332;28;20471;-73
2021/05/28 09:55:25;;;;;;;11.57;8.32;;;;;;;27.90;37.34;99429.66;4994117;28;20038;-75
2021/05/28 09:57:54;;;;;;;11.82;8.77;;;;;;;27.32;38.12;99427.75;4995397;28;20042;-73
2021/05/28 10:00:22;;;;;;;10.20;8.23;;;;;;;26.73;37.74;99431.13;4995139;28;20044;-74
2021/05/28 10:03:12;;;;;;;14.32;8.60;;;;;;;26.61;39.47;99431.91;5011088;28;20038;-74
2021/05/28 10:05:39;;;;;;;11.90;8.80;;;;;;;26.36;40.18;99426.63;5010773;28;20195;-73
2021/05/28 10:08:11;;;;;;;21.00;9.68;;;;;;;26.26;41.04;99424.44;5011110;28;20095;-73
2021/05/28 10:10:38;;;;;;;12.68;8.55;;;;;;;26.56;41.22;99415.50;5011182;28;20648;-73
2021/05/28 10:13:11;;;;;;;12.25;8.18;;;;;;;26.62;40.70;99419.19;4994887;28;20041;-75
2021/05/28 10:15:46;;;;;;;14.55;7.78;;;;;;;26.76;39.90;99420.66;5011025;28;20038;-73
2021/05/28 10:18:14;;;;;;;10.55;7.95;;;;;;;26.34;40.62;99417.06;5010948;28;20675;-78
2021/05/28 10:20:42;;;;;;;9.95;8.80;;;;;;;26.15;40.44;99422.50;5010789;28;20125;-78
2021/05/28 10:23:09;;;;;;;10.63;8.52;;;;;;;26.09;40.55;99420.69;4994223;28;20053;-71
2021/05/28 10:25:36;;;;;;;8.18;6.75;;;;;;;25.79;41.21;99419.53;5010100;28;20045;-76
2021/05/28 10:28:06;;;;;;;11.25;7.70;;;;;;;25.52;41.99;99413.53;5005422;28;20549;-73
2021/05/28 10:30:38;;;;;;;12.80;7.65;;;;;;;25.46;42.85;99420.69;4993185;28;20380;-74
2021/05/28 10:33:27;;;;;;;11.93;9.13;;;;;;;25.29;43.49;99425.81;4993613;28;20034;-75
2021/05/28 10:36:01;;;;;;;11.45;9.38;;;;;;;25.19;43.94;99414.66;5009013;28;20042;-76
2021/05/28 10:38:30;;;;;;;14.27;9.00;;;;;;;24.84;44.01;99417.81;4993771;28;20035;-74
2021/05/28 10:41:07;;;;;;;12.82;8.57;;;;;;;24.85;44.76;99414.91;4991869;28;20085;-73
2021/05/28 10:43:35;;;;;;;13.68;9.32;;;;;;;24.47;45.33;99417.59;4993363;28;20042;-73
2021/05/28 10:46:05;;;;;;;13.43;8.88;;;;;;;24.19;45.83;99421.47;4993344;28;20470;-73
2021/05/28 10:48:37;;;;;;;11.70;8.60;;;;;;;23.93;46.12;99417.81;4992431;28;20434;-74
2021/05/28 10:51:29;;;;;;;10.52;8.98;;;;;;;23.99;46.37;99424.22;4993068;28;20113;-73
2021/05/28 10:53:55;;;;;;;14.23;9.93;;;;;;;23.64;47.28;99419.09;4993002;28;20062;-77
2021/05/28 10:56:28;;;;;;;15.38;10.85;;;;;;;23.31;48.87;99415.38;4993289;28;20066;-73
2021/05/28 10:58:55;;;;;;;12.07;9.65;;;;;;;23.38;48.55;99415.41;4991910;28;20460;-72
2021/05/28 11:01:33;;;;;;;17.58;10.98;;;;;;;23.35;49.24;99416.66;4993280;28;20046;-74
2021/05/28 11:04:01;;;;;;;11.40;8.90;;;;;;;23.23;48.87;99415.59;4992968;28;20049;-75
2021/05/28 11:06:28;;;;;;;11.13;9.30;;;;;;;23.25;49.19;99419.75;4993118;28;20038;-75
2021/05/28 11:09:07;;;;;;;12.65;8.70;;;;;;;23.08;49.28;99419.28;4993000;28;20038;-73
2021/05/28 11:11:36;;;;;;;11.45;8.13;;;;;;;23.14;48.04;99414.09;4992915;28;20030;-77
2021/05/28 11:14:28;;;;;;;13.27;8.40;;;;;;;23.12;47.82;99410.81;4993144;28;20045;-74
2021/05/28 11:16:57;;;;;;;14.82;8.00;;;;;;;23.10;48.40;99408.28;4991537;28;20046;-76
2021/05/28 11:19:26;;;;;;;9.00;7.15;;;;;;;23.10;47.12;99409.13;4992939;28;20049;-79
2021/05/28 11:21:56;;;;;;;12.27;8.13;;;;;;;23.17;48.01;99402.94;4991222;28;20054;-77
2021/05/28 11:24:22;;;;;;;12.82;7.78;;;;;;;23.20;47.60;99403.38;5017387;28;20029;-73
2021/05/28 11:26:48;;;;;;;18.33;10.02;;;;;;;23.37;46.87;99401.06;5013883;28;20083;-75